East Rochester, New Hampshire
Current Conditions -  °F | °C
As of 10:51 AM on Sunday 23 Nov 2014 (Local Time) from KDAW Reporting Station
Clear Clear  
Wind Chill: 51°   Ceiling: Unl
Heat Index: 51°   Visibility: 10mi
Dew Point: 38°   Wind: 0mph
Humidity: 61%   Direction: NA
Pressure: 30.09"   Gusts: NA
Location:  43.3246°N, 70.9445°W
Report Text: KDAW 231551Z AUTO 00000KT 10SM CLR 11/03 A3009 RMK AO2 SLP187 T01060033
Loading
Personal Weather Stations






























Interactive Weather Map New forecast layout! Learn more

10-Day Weather Forecast

Advertisements
Track Severe Weather on mobile